createdAt,value
2023-05-12T00:01:31.870Z,4.30
2023-05-12T00:03:59.408Z,5.13
2023-05-12T00:06:26.977Z,4.35
2023-05-12T00:08:54.215Z,4.32
2023-05-12T00:11:21.736Z,4.60
2023-05-12T00:13:49.101Z,4.28
2023-05-12T00:16:18.999Z,4.45
2023-05-12T00:18:46.375Z,4.45
2023-05-12T00:21:14.488Z,4.40
2023-05-12T00:23:43.698Z,4.60
2023-05-12T00:26:10.905Z,5.07
2023-05-12T00:28:38.434Z,4.15
2023-05-12T00:31:05.820Z,4.60
2023-05-12T00:33:33.643Z,4.95
2023-05-12T00:36:03.622Z,4.07
2023-05-12T00:38:31.018Z,4.50
2023-05-12T00:40:58.281Z,4.63
2023-05-12T00:43:25.913Z,4.47
2023-05-12T00:45:53.403Z,4.53
2023-05-12T00:48:21.500Z,4.28
2023-05-12T00:50:49.156Z,4.10
2023-05-12T00:53:16.526Z,3.95
2023-05-12T00:55:44.557Z,4.05
2023-05-12T00:58:12.507Z,3.53
2023-05-12T01:00:40.560Z,3.58
2023-05-12T01:03:08.934Z,3.42
2023-05-12T01:05:50.487Z,3.83
2023-05-12T01:08:19.268Z,3.75
2023-05-12T01:10:47.428Z,3.80
2023-05-12T01:13:16.995Z,3.92
2023-05-12T01:15:47.764Z,3.67
2023-05-12T01:18:19.911Z,3.55
2023-05-12T01:20:48.512Z,3.70
2023-05-12T01:23:19.226Z,4.00
2023-05-12T01:25:50.493Z,3.67
2023-05-12T01:28:18.685Z,3.50
2023-05-12T01:30:46.388Z,4.05
2023-05-12T01:33:14.422Z,3.45
2023-05-12T01:35:42.689Z,3.63
2023-05-12T01:38:10.909Z,3.90
2023-05-12T01:40:40.252Z,3.80
2023-05-12T01:43:08.339Z,4.03
2023-05-12T01:45:36.612Z,3.95
2023-05-12T01:48:04.349Z,3.83
2023-05-12T01:50:31.903Z,3.90
2023-05-12T01:53:00.997Z,3.65
2023-05-12T01:55:28.864Z,3.70
2023-05-12T01:57:58.002Z,4.05
2023-05-12T02:00:25.845Z,3.58
2023-05-12T02:02:56.594Z,4.00
2023-05-12T02:05:24.046Z,4.00
2023-05-12T02:07:51.386Z,3.67
2023-05-12T02:10:19.052Z,3.88
2023-05-12T02:12:49.410Z,3.88
2023-05-12T02:15:17.937Z,3.63
2023-05-12T02:17:54.096Z,3.55
2023-05-12T02:20:22.617Z,3.17
2023-05-12T02:22:50.078Z,3.60
2023-05-12T02:25:17.348Z,3.10
2023-05-12T02:27:45.195Z,3.58
2023-05-12T02:30:13.420Z,3.40
2023-05-12T02:32:41.499Z,3.60
2023-05-12T02:35:09.443Z,3.15
2023-05-12T02:37:38.179Z,3.30
2023-05-12T02:40:07.937Z,3.50
2023-05-12T02:42:36.359Z,3.45
2023-05-12T02:45:04.362Z,3.42
2023-05-12T02:47:36.600Z,3.58
2023-05-12T02:50:04.600Z,3.17
2023-05-12T02:52:33.270Z,3.38
2023-05-12T02:55:00.563Z,3.78
2023-05-12T02:57:33.111Z,3.50
2023-05-12T03:02:28.177Z,3.30
2023-05-12T03:04:56.355Z,2.97
2023-05-12T03:07:23.964Z,3.20
2023-05-12T03:09:51.642Z,3.50
2023-05-12T03:12:19.502Z,3.65
2023-05-12T03:14:47.021Z,3.53
2023-05-12T03:17:14.542Z,4.10
2023-05-12T03:19:41.873Z,3.70
2023-05-12T03:22:09.680Z,3.25
2023-05-12T03:24:36.972Z,4.00
2023-05-12T03:27:05.907Z,3.58
2023-05-12T03:29:33.414Z,3.20
2023-05-12T03:32:01.293Z,3.58
2023-05-12T03:34:29.150Z,3.80
2023-05-12T03:36:58.911Z,3.78
2023-05-12T03:39:26.644Z,3.88
2023-05-12T03:41:53.920Z,3.83
2023-05-12T03:44:21.581Z,4.18
2023-05-12T03:46:48.878Z,4.25
2023-05-12T03:49:16.319Z,4.40
2023-05-12T03:51:43.782Z,4.22
2023-05-12T03:54:12.620Z,3.80
2023-05-12T03:56:42.550Z,4.03
2023-05-12T03:59:12.165Z,4.55
2023-05-12T04:01:39.705Z,4.20
2023-05-12T04:04:06.980Z,3.90
2023-05-12T04:06:34.511Z,4.13
2023-05-12T04:09:01.815Z,4.25
2023-05-12T04:11:29.408Z,4.63
2023-05-12T04:13:56.914Z,3.85
2023-05-12T04:16:24.329Z,4.13
2023-05-12T04:18:52.070Z,5.18
2023-05-12T04:21:19.204Z,4.60
2023-05-12T04:23:46.719Z,4.00
2023-05-12T04:26:14.104Z,4.35
2023-05-12T04:28:41.594Z,4.43
2023-05-12T04:31:09.718Z,4.80
2023-05-12T04:33:37.754Z,5.05
2023-05-12T04:36:06.715Z,4.40
2023-05-12T04:38:34.126Z,5.00
2023-05-12T04:41:03.623Z,4.40
2023-05-12T04:46:02.478Z,4.70
2023-05-12T04:48:30.015Z,4.95
2023-05-12T04:51:00.516Z,4.78
2023-05-12T04:53:28.643Z,5.43
2023-05-12T04:55:56.793Z,4.43
2023-05-12T04:58:27.231Z,4.63
2023-05-12T05:00:55.488Z,4.80
2023-05-12T05:03:23.635Z,4.38
2023-05-12T05:05:52.044Z,4.50
2023-05-12T05:08:19.672Z,4.68
2023-05-12T05:10:47.215Z,4.85
2023-05-12T05:13:15.188Z,4.55
2023-05-12T05:15:53.383Z,4.95
2023-05-12T05:18:23.981Z,4.43
2023-05-12T05:20:57.744Z,4.95
2023-05-12T05:23:26.884Z,4.32
2023-05-12T05:25:54.613Z,4.72
2023-05-12T05:28:22.070Z,4.57
2023-05-12T05:30:50.141Z,4.70
2023-05-12T05:33:17.677Z,4.25
2023-05-12T05:35:45.771Z,4.68
2023-05-12T05:38:13.541Z,4.38
2023-05-12T05:40:52.300Z,4.47
2023-05-12T05:43:22.528Z,4.95
2023-05-12T05:45:50.546Z,4.53
2023-05-12T05:48:19.205Z,4.43
2023-05-12T05:50:47.663Z,4.38
2023-05-12T05:53:15.565Z,4.60
2023-05-12T05:55:43.659Z,4.45
2023-05-12T05:58:11.691Z,4.72
2023-05-12T06:00:39.276Z,4.28
2023-05-12T06:03:07.337Z,3.92
2023-05-12T06:05:35.154Z,4.10
2023-05-12T06:08:02.291Z,4.32
2023-05-12T06:10:29.612Z,4.68
2023-05-12T06:12:56.915Z,4.03
2023-05-12T06:15:24.318Z,4.53
2023-05-12T06:17:51.602Z,4.15
2023-05-12T06:20:19.012Z,4.32
2023-05-12T06:22:46.663Z,3.83
2023-05-12T06:25:13.957Z,4.00
2023-05-12T06:27:41.314Z,4.40
2023-05-12T06:30:09.692Z,3.60
2023-05-12T06:32:36.830Z,3.80
2023-05-12T06:35:06.878Z,4.03
2023-05-12T06:37:34.116Z,3.63
2023-05-12T06:40:01.376Z,4.20
2023-05-12T06:42:29.653Z,4.15
2023-05-12T06:44:57.432Z,3.78
2023-05-12T06:47:24.590Z,4.53
2023-05-12T06:49:51.958Z,3.92
2023-05-12T06:52:20.768Z,4.03
2023-05-12T06:54:48.374Z,4.13
2023-05-12T06:57:15.682Z,4.22
2023-05-12T06:59:42.913Z,3.75
2023-05-12T07:02:10.159Z,3.92
2023-05-12T07:04:37.744Z,4.13
2023-05-12T07:07:05.474Z,3.97
2023-05-12T07:09:32.712Z,4.53
2023-05-12T07:12:00.925Z,4.53
2023-05-12T07:14:28.308Z,4.13
2023-05-12T07:16:55.515Z,4.40
2023-05-12T07:19:22.706Z,4.53
2023-05-12T07:21:49.992Z,5.10
2023-05-12T07:24:17.494Z,5.75
2023-05-12T07:26:44.995Z,5.65
2023-05-12T07:29:13.799Z,5.53
2023-05-12T07:31:41.553Z,5.03
2023-05-12T07:34:09.024Z,5.30
2023-05-12T07:36:36.582Z,4.93
2023-05-12T07:39:04.086Z,5.07
2023-05-12T07:41:34.591Z,4.50
2023-05-12T07:44:05.879Z,5.10
2023-05-12T07:46:36.739Z,4.47
2023-05-12T07:49:05.407Z,4.15
2023-05-12T07:51:43.156Z,4.00
2023-05-12T07:54:10.486Z,3.92
2023-05-12T07:56:37.639Z,3.22
2023-05-12T07:59:05.310Z,3.90
2023-05-12T08:01:32.422Z,3.20
2023-05-12T08:04:00.188Z,3.20
2023-05-12T08:06:27.617Z,3.25
2023-05-12T08:08:58.194Z,3.35
2023-05-12T08:11:26.655Z,3.45
2023-05-12T08:13:56.101Z,3.17
2023-05-12T08:16:23.756Z,3.13
2023-05-12T08:18:51.093Z,2.90
2023-05-12T08:21:18.842Z,3.05
2023-05-12T08:23:46.463Z,3.35
2023-05-12T08:26:15.164Z,2.90
2023-05-12T08:28:42.821Z,2.90
2023-05-12T08:31:10.300Z,2.80
2023-05-12T08:33:37.890Z,2.80
2023-05-12T08:36:05.504Z,2.35
2023-05-12T08:38:33.381Z,2.30
2023-05-12T08:41:26.152Z,2.80
2023-05-12T08:43:53.568Z,2.30
2023-05-12T08:46:24.849Z,2.17
2023-05-12T08:48:53.974Z,2.45
2023-05-12T08:51:22.699Z,2.78
2023-05-12T08:53:51.159Z,2.40
2023-05-12T09:01:18.729Z,2.20
2023-05-12T09:03:50.152Z,2.25
2023-05-12T09:06:18.404Z,2.30
2023-05-12T09:08:46.154Z,2.75
2023-05-12T09:11:14.035Z,2.60
2023-05-12T09:14:19.430Z,2.35
2023-05-12T09:16:49.606Z,2.55
2023-05-12T09:19:21.757Z,2.42
2023-05-12T09:21:49.526Z,2.53
2023-05-12T09:24:17.242Z,2.60
2023-05-12T09:26:54.586Z,2.22
2023-05-12T09:29:31.221Z,2.40
2023-05-12T09:32:04.282Z,2.53
2023-05-12T09:34:38.639Z,2.35
2023-05-12T09:37:08.224Z,2.30
2023-05-12T09:39:36.856Z,2.50
2023-05-12T09:42:10.659Z,2.45
2023-05-12T09:44:39.311Z,2.50
2023-05-12T09:47:08.213Z,2.40
2023-05-12T09:49:35.936Z,2.50
2023-05-12T09:52:05.574Z,2.42
2023-05-12T09:54:34.494Z,2.55
2023-05-12T09:57:05.146Z,2.58
2023-05-12T09:59:36.287Z,2.35
2023-05-12T10:02:06.816Z,2.38
2023-05-12T10:04:54.767Z,2.25
2023-05-12T10:07:26.239Z,2.60
2023-05-12T10:09:56.565Z,2.50
2023-05-12T10:12:23.758Z,2.70
2023-05-12T10:14:51.963Z,2.65
2023-05-12T10:17:24.698Z,2.58
2023-05-12T10:19:53.078Z,2.42
2023-05-12T10:22:21.956Z,2.45
2023-05-12T10:24:50.571Z,2.50
2023-05-12T10:27:20.393Z,2.47
2023-05-12T10:29:49.310Z,2.80
2023-05-12T10:32:18.198Z,2.70
2023-05-12T10:34:45.583Z,2.97
2023-05-12T10:37:13.386Z,2.63
2023-05-12T10:39:49.265Z,2.90
2023-05-12T10:42:25.264Z,3.15
2023-05-12T10:44:55.393Z,2.72
2023-05-12T10:47:36.355Z,2.70
2023-05-12T10:50:03.712Z,2.92
2023-05-12T10:52:32.564Z,2.60
2023-05-12T10:55:01.857Z,2.40
2023-05-12T10:57:33.935Z,2.78
2023-05-12T11:00:02.883Z,2.55
2023-05-12T11:02:38.499Z,2.80
2023-05-12T11:05:17.415Z,2.90
2023-05-12T11:07:50.583Z,2.60
2023-05-12T11:10:20.037Z,2.97
2023-05-12T11:12:48.164Z,2.50
2023-05-12T11:15:18.056Z,2.72
2023-05-12T11:17:46.656Z,3.30
2023-05-12T11:20:24.033Z,2.70
2023-05-12T11:22:52.093Z,2.22
2023-05-12T11:25:20.391Z,2.80
2023-05-12T11:27:51.473Z,2.80
2023-05-12T11:30:19.914Z,2.90
2023-05-12T11:32:47.706Z,2.60
2023-05-12T11:35:17.575Z,2.80
2023-05-12T11:37:46.648Z,2.75
2023-05-12T11:40:23.647Z,2.97
2023-05-12T11:42:53.008Z,2.78
2023-05-12T11:45:26.351Z,2.70
2023-05-12T11:50:25.261Z,3.22
2023-05-12T11:52:53.447Z,3.47
2023-05-12T11:55:23.638Z,2.88
2023-05-12T11:58:03.318Z,2.80
2023-05-12T12:00:35.660Z,2.70
2023-05-12T12:03:21.760Z,2.70
2023-05-12T12:06:01.433Z,2.72
2023-05-12T12:08:29.473Z,2.30
2023-05-12T12:10:57.128Z,2.65
2023-05-12T12:13:26.037Z,2.55
2023-05-12T12:15:53.318Z,3.28
2023-05-12T12:18:21.332Z,2.83
2023-05-12T12:20:48.868Z,2.60
2023-05-12T12:23:16.323Z,2.75
2023-05-12T12:25:43.869Z,2.30
2023-05-12T12:28:11.271Z,2.85
2023-05-12T12:30:38.769Z,2.25
2023-05-12T12:33:06.271Z,2.60
2023-05-12T12:35:33.433Z,2.60
2023-05-12T12:40:28.411Z,2.58
2023-05-12T12:42:56.281Z,2.60
2023-05-12T12:45:24.224Z,2.50
2023-05-12T12:47:54.969Z,2.53
2023-05-12T12:50:25.038Z,2.33
2023-05-12T12:52:53.567Z,2.40
2023-05-12T12:55:21.211Z,2.67
2023-05-12T12:57:48.667Z,2.70
2023-05-12T13:00:16.737Z,2.17
2023-05-12T13:02:45.090Z,2.30
2023-05-12T13:05:12.565Z,2.90
2023-05-12T13:07:40.011Z,2.10
2023-05-12T13:10:08.073Z,2.78
2023-05-12T13:12:36.411Z,2.65
2023-05-12T13:15:04.533Z,2.97
2023-05-12T13:17:36.304Z,2.33
2023-05-12T13:20:04.084Z,2.97
2023-05-12T13:22:33.390Z,2.60
2023-05-12T13:25:00.802Z,2.50
2023-05-12T13:27:31.363Z,2.85
2023-05-12T13:29:58.803Z,2.45
2023-05-12T13:32:26.057Z,2.78
2023-05-12T13:34:53.563Z,2.65
2023-05-12T13:37:21.052Z,2.10
2023-05-12T13:39:48.370Z,2.63
2023-05-12T13:42:15.868Z,2.42
2023-05-12T13:44:43.737Z,2.22
2023-05-12T13:47:11.397Z,2.35
2023-05-12T13:49:39.872Z,2.80
2023-05-12T13:52:08.297Z,3.25
2023-05-12T13:54:35.632Z,2.70
2023-05-12T13:57:04.298Z,2.78
2023-05-12T13:59:32.269Z,2.60
2023-05-12T14:02:00.032Z,2.33
2023-05-12T14:04:27.414Z,2.72
2023-05-12T14:06:55.982Z,2.60
2023-05-12T14:09:23.498Z,2.72
2023-05-12T14:11:50.837Z,3.00
2023-05-12T14:14:18.167Z,2.88
2023-05-12T14:16:45.700Z,2.33
2023-05-12T14:19:13.296Z,2.42
2023-05-12T14:21:41.338Z,2.75
2023-05-12T14:24:09.240Z,2.58
2023-05-12T14:26:36.997Z,2.65
2023-05-12T14:29:08.869Z,2.40
2023-05-12T14:31:36.741Z,2.58
2023-05-12T14:34:05.106Z,2.60
2023-05-12T14:36:32.600Z,2.75
2023-05-12T14:38:59.688Z,8.00
2023-05-12T14:41:26.940Z,2.30
2023-05-12T14:43:54.557Z,2.70
2023-05-12T14:46:22.127Z,3.38
2023-05-12T14:48:49.834Z,2.80
2023-05-12T14:51:17.889Z,3.17
2023-05-12T14:53:45.294Z,2.42
2023-05-12T14:56:12.978Z,3.03
2023-05-12T14:58:40.513Z,2.33
2023-05-12T15:01:09.447Z,2.60
2023-05-12T15:03:37.663Z,2.58
2023-05-12T15:06:07.931Z,2.95
2023-05-12T15:08:35.913Z,2.85
2023-05-12T15:11:03.447Z,2.55
2023-05-12T15:13:31.402Z,2.80
2023-05-12T15:15:58.898Z,2.63
2023-05-12T15:18:26.330Z,2.65
2023-05-12T15:20:53.703Z,3.10
2023-05-12T15:23:21.523Z,2.58
2023-05-12T15:25:49.403Z,2.50
2023-05-12T15:28:17.390Z,2.50
2023-05-12T15:30:45.749Z,2.70
2023-05-12T15:33:15.114Z,2.97
2023-05-12T15:35:42.569Z,2.65
2023-05-12T15:38:10.436Z,3.08
2023-05-12T15:40:38.233Z,3.28
2023-05-12T15:43:05.654Z,2.33
2023-05-12T15:45:33.096Z,3.00
2023-05-12T15:48:01.326Z,2.58
2023-05-12T15:50:28.863Z,2.88
2023-05-12T15:52:56.126Z,3.00
2023-05-12T15:55:23.875Z,2.88
2023-05-12T15:57:52.426Z,2.70
2023-05-12T16:00:22.708Z,2.85
2023-05-12T16:02:50.422Z,2.92
2023-05-12T16:05:18.479Z,3.17
2023-05-12T16:07:48.692Z,3.75
2023-05-12T16:10:16.291Z,3.40
2023-05-12T16:12:46.193Z,3.40
2023-05-12T16:15:13.601Z,3.28
2023-05-12T16:17:41.248Z,2.67
2023-05-12T16:20:09.430Z,3.10
2023-05-12T16:22:36.914Z,3.13
2023-05-12T16:25:05.250Z,3.08
2023-05-12T16:27:33.768Z,3.20
2023-05-12T16:30:01.319Z,2.60
2023-05-12T16:32:30.081Z,3.30
2023-05-12T16:34:57.912Z,3.00
2023-05-12T16:37:26.569Z,3.40
2023-05-12T16:39:54.383Z,3.08
2023-05-12T16:42:21.766Z,3.50
2023-05-12T16:44:49.191Z,3.10
2023-05-12T16:47:17.552Z,3.67
2023-05-12T16:49:47.833Z,3.28
2023-05-12T16:52:15.365Z,3.47
2023-05-12T16:54:42.746Z,3.25
2023-05-12T16:57:09.965Z,3.47
2023-05-12T16:59:38.808Z,3.38
2023-05-12T17:02:07.021Z,3.88
2023-05-12T17:04:37.626Z,2.92
2023-05-12T17:07:07.832Z,3.50
2023-05-12T17:09:36.050Z,3.08
2023-05-12T17:12:07.522Z,3.08
2023-05-12T17:14:37.689Z,2.70
2023-05-12T17:17:05.395Z,3.65
2023-05-12T17:19:36.143Z,2.40
2023-05-12T17:22:03.828Z,2.67
2023-05-12T17:24:31.020Z,3.70
2023-05-12T17:26:58.617Z,2.60
2023-05-12T17:29:25.768Z,3.00
2023-05-12T17:31:53.698Z,3.17
2023-05-12T17:34:21.652Z,2.80
2023-05-12T17:36:51.396Z,2.65
2023-05-12T17:39:18.767Z,2.80
2023-05-12T17:41:47.358Z,2.70
2023-05-12T17:44:14.809Z,3.00
2023-05-12T17:46:42.382Z,2.60
2023-05-12T17:49:09.687Z,2.47
2023-05-12T17:51:36.988Z,2.97
2023-05-12T17:54:04.373Z,2.92
2023-05-12T17:56:31.730Z,3.00
2023-05-12T17:58:59.282Z,3.15
2023-05-12T18:01:27.986Z,2.25
2023-05-12T18:03:55.467Z,2.83
2023-05-12T18:06:23.030Z,3.08
2023-05-12T18:08:50.400Z,2.90
2023-05-12T18:11:17.848Z,2.85
2023-05-12T18:13:45.125Z,2.80
2023-05-12T18:16:21.737Z,3.10
2023-05-12T18:18:55.906Z,3.20
2023-05-12T18:21:23.366Z,3.30
2023-05-12T18:23:50.942Z,2.78
2023-05-12T18:26:18.214Z,3.08
2023-05-12T18:28:45.658Z,3.30
2023-05-12T18:31:16.361Z,3.08
2023-05-12T18:33:51.443Z,3.03
2023-05-12T18:36:19.448Z,3.75
2023-05-12T18:38:46.800Z,3.75
2023-05-12T18:41:14.169Z,3.45
2023-05-12T18:43:44.213Z,3.47
2023-05-12T18:46:12.586Z,3.50
2023-05-12T18:48:40.248Z,3.47
2023-05-12T18:51:08.190Z,4.32
2023-05-12T18:53:35.665Z,3.22
2023-05-12T18:56:03.015Z,4.28
2023-05-12T18:58:30.188Z,3.58
2023-05-12T19:00:57.712Z,3.20
2023-05-12T19:03:25.262Z,3.33
2023-05-12T19:05:55.384Z,3.60
2023-05-12T19:08:22.590Z,3.63
2023-05-12T19:10:50.569Z,4.18
2023-05-12T19:13:17.957Z,3.80
2023-05-12T19:15:45.185Z,4.00
2023-05-12T19:18:12.461Z,3.92
2023-05-12T19:20:39.876Z,3.60
2023-05-12T19:23:07.410Z,4.00
2023-05-12T19:25:35.517Z,3.90
2023-05-12T19:28:02.869Z,3.88
2023-05-12T19:30:30.133Z,3.70
2023-05-12T19:32:58.159Z,3.55
2023-05-12T19:35:25.748Z,4.22
2023-05-12T19:37:53.013Z,4.00
2023-05-12T19:40:20.627Z,3.92
2023-05-12T19:42:48.345Z,3.97
2023-05-12T19:45:15.727Z,4.07
2023-05-12T19:47:43.267Z,3.88
2023-05-12T19:50:10.813Z,4.30
2023-05-12T19:52:41.594Z,4.45
2023-05-12T19:55:09.390Z,4.32
2023-05-12T19:57:38.402Z,3.80
2023-05-12T20:00:06.245Z,4.20
2023-05-12T20:02:40.869Z,4.00
2023-05-12T20:05:08.952Z,4.18
2023-05-12T20:07:36.267Z,3.67
2023-05-12T20:10:04.284Z,4.15
2023-05-12T20:12:34.609Z,4.00
2023-05-12T20:15:11.708Z,4.10
2023-05-12T20:17:39.500Z,3.78
2023-05-12T20:20:08.320Z,4.55
2023-05-12T20:22:35.841Z,4.70
2023-05-12T20:25:04.687Z,3.47
2023-05-12T20:27:34.994Z,3.65
2023-05-12T20:30:02.456Z,4.07
2023-05-12T20:32:33.316Z,3.80
2023-05-12T20:35:00.430Z,4.13
2023-05-12T20:37:28.170Z,4.05
2023-05-12T20:39:55.844Z,4.28
2023-05-12T20:42:23.268Z,5.78
2023-05-12T20:44:50.465Z,6.28
2023-05-12T20:47:17.794Z,4.63
2023-05-12T20:49:45.274Z,5.47
2023-05-12T20:52:12.688Z,4.93
2023-05-12T20:54:39.922Z,5.25
2023-05-12T20:57:07.277Z,5.75
2023-05-12T20:59:34.576Z,4.07
2023-05-12T21:02:02.015Z,4.90
2023-05-12T21:04:29.590Z,4.55
2023-05-12T21:06:56.800Z,4.32
2023-05-12T21:09:24.071Z,4.78
2023-05-12T21:11:51.308Z,4.50
2023-05-12T21:14:18.555Z,4.65
2023-05-12T21:16:46.204Z,4.47
2023-05-12T21:19:13.462Z,5.03
2023-05-12T21:21:40.886Z,4.40
2023-05-12T21:24:08.383Z,3.92
2023-05-12T21:26:35.610Z,4.28
2023-05-12T21:29:03.581Z,4.60
2023-05-12T21:31:30.940Z,4.25
2023-05-12T21:33:58.420Z,4.28
2023-05-12T21:36:25.881Z,4.35
2023-05-12T21:38:53.377Z,4.35
2023-05-12T21:41:21.591Z,4.00
2023-05-12T21:43:48.844Z,4.30
2023-05-12T21:46:16.143Z,4.10
2023-05-12T21:48:43.553Z,4.20
2023-05-12T21:51:11.057Z,3.67
2023-05-12T21:53:38.521Z,4.15
2023-05-12T21:56:06.454Z,4.05
2023-05-12T21:58:33.851Z,4.82
2023-05-12T22:01:01.119Z,4.28
2023-05-12T22:03:28.392Z,4.40
2023-05-12T22:05:57.006Z,4.55
2023-05-12T22:08:24.173Z,4.07
2023-05-12T22:10:52.032Z,4.10
2023-05-12T22:13:19.624Z,4.30
2023-05-12T22:15:46.729Z,4.13
2023-05-12T22:18:14.066Z,4.45
2023-05-12T22:20:41.413Z,4.53
2023-05-12T22:23:08.711Z,4.45
2023-05-12T22:25:36.183Z,5.15
2023-05-12T22:28:04.447Z,4.68
2023-05-12T22:30:32.716Z,4.38
2023-05-12T22:33:00.567Z,4.45
2023-05-12T22:35:27.866Z,5.15
2023-05-12T22:37:55.216Z,4.63
2023-05-12T22:40:23.329Z,4.95
2023-05-12T22:42:50.749Z,4.63
2023-05-12T22:45:18.307Z,4.90
2023-05-12T22:47:45.821Z,4.75
2023-05-12T22:50:13.626Z,5.40
2023-05-12T22:52:41.115Z,4.65
2023-05-12T22:55:08.799Z,4.97
2023-05-12T22:57:38.663Z,4.55
2023-05-12T23:00:07.380Z,5.18
2023-05-12T23:02:34.819Z,4.57
2023-05-12T23:05:04.093Z,4.90
2023-05-12T23:07:31.727Z,4.38
2023-05-12T23:09:59.320Z,5.32
2023-05-12T23:12:26.890Z,4.25
2023-05-12T23:14:54.480Z,5.03
2023-05-12T23:17:22.005Z,5.15
2023-05-12T23:19:49.057Z,5.10
2023-05-12T23:22:16.395Z,4.65
2023-05-12T23:24:44.441Z,5.13
2023-05-12T23:27:11.869Z,5.15
2023-05-12T23:29:39.233Z,4.90
2023-05-12T23:32:06.987Z,4.80
2023-05-12T23:34:34.653Z,4.55
2023-05-12T23:37:01.976Z,4.78
2023-05-12T23:39:29.283Z,4.75
2023-05-12T23:41:56.702Z,4.82
2023-05-12T23:44:24.076Z,4.68
2023-05-12T23:46:51.386Z,5.03
2023-05-12T23:49:18.802Z,5.65
2023-05-12T23:51:46.399Z,4.78
2023-05-12T23:54:13.637Z,5.03
2023-05-12T23:56:40.890Z,4.90
2023-05-12T23:59:08.191Z,4.57
